sensor_id;sensor_type;location;lat;lon;timestamp;P1;durP1;ratioP1;P2;durP2;ratioP2
18576;SDS011;9418;52.694;13.294;2022-11-20T00:02:16;8.50;;;7.70;;
18576;SDS011;9418;52.694;13.294;2022-11-20T00:04:42;9.43;;;8.53;;
18576;SDS011;9418;52.694;13.294;2022-11-20T00:07:09;10.93;;;9.17;;
18576;SDS011;9418;52.694;13.294;2022-11-20T00:09:35;9.33;;;8.43;;
18576;SDS011;9418;52.694;13.294;2022-11-20T00:12:02;9.17;;;8.30;;
18576;SDS011;9418;52.694;13.294;2022-11-20T00:14:29;9.07;;;8.27;;
18576;SDS011;9418;52.694;13.294;2022-11-20T00:16:56;10.67;;;8.57;;
18576;SDS011;9418;52.694;13.294;2022-11-20T00:19:24;10.37;;;9.27;;
18576;SDS011;9418;52.694;13.294;2022-11-20T00:21:50;9.10;;;8.30;;
18576;SDS011;9418;52.694;13.294;2022-11-20T00:24:19;9.20;;;8.30;;
18576;SDS011;9418;52.694;13.294;2022-11-20T00:26:46;9.77;;;8.87;;
18576;SDS011;9418;52.694;13.294;2022-11-20T00:29:13;9.40;;;8.50;;
18576;SDS011;9418;52.694;13.294;2022-11-20T00:31:39;8.83;;;6.80;;
18576;SDS011;9418;52.694;13.294;2022-11-20T00:34:06;8.93;;;8.03;;
18576;SDS011;9418;52.694;13.294;2022-11-20T00:36:34;9.37;;;8.47;;
18576;SDS011;9418;52.694;13.294;2022-11-20T00:39:00;10.07;;;9.03;;
18576;SDS011;9418;52.694;13.294;2022-11-20T00:41:28;11.23;;;10.03;;
18576;SDS011;9418;52.694;13.294;2022-11-20T00:43:55;9.50;;;8.50;;
18576;SDS011;9418;52.694;13.294;2022-11-20T00:46:23;9.80;;;8.90;;
18576;SDS011;9418;52.694;13.294;2022-11-20T00:48:50;10.90;;;9.80;;
18576;SDS011;9418;52.694;13.294;2022-11-20T00:51:18;9.00;;;8.10;;
18576;SDS011;9418;52.694;13.294;2022-11-20T00:53:48;11.20;;;8.87;;
18576;SDS011;9418;52.694;13.294;2022-11-20T00:56:15;11.23;;;9.20;;
18576;SDS011;9418;52.694;13.294;2022-11-20T00:58:46;11.40;;;8.40;;
18576;SDS011;9418;52.694;13.294;2022-11-20T01:01:15;11.00;;;9.10;;
18576;SDS011;9418;52.694;13.294;2022-11-20T01:03:44;9.97;;;8.00;;
18576;SDS011;9418;52.694;13.294;2022-11-20T01:06:12;9.87;;;8.87;;
18576;SDS011;9418;52.694;13.294;2022-11-20T01:08:40;10.07;;;8.60;;
18576;SDS011;9418;52.694;13.294;2022-11-20T01:11:09;9.93;;;8.93;;
18576;SDS011;9418;52.694;13.294;2022-11-20T01:13:37;10.57;;;8.70;;
18576;SDS011;9418;52.694;13.294;2022-11-20T01:16:04;10.50;;;9.13;;
18576;SDS011;9418;52.694;13.294;2022-11-20T01:18:32;9.67;;;8.67;;
18576;SDS011;9418;52.694;13.294;2022-11-20T01:21:00;10.50;;;8.47;;
18576;SDS011;9418;52.694;13.294;2022-11-20T01:23:29;10.40;;;9.20;;
18576;SDS011;9418;52.694;13.294;2022-11-20T01:25:58;9.70;;;8.67;;
18576;SDS011;9418;52.694;13.294;2022-11-20T01:28:27;8.97;;;8.10;;
18576;SDS011;9418;52.694;13.294;2022-11-20T01:30:54;11.03;;;8.80;;
18576;SDS011;9418;52.694;13.294;2022-11-20T01:33:21;10.70;;;9.57;;
18576;SDS011;9418;52.694;13.294;2022-11-20T01:35:48;10.77;;;9.40;;
18576;SDS011;9418;52.694;13.294;2022-11-20T01:38:15;10.17;;;9.17;;
18576;SDS011;9418;52.694;13.294;2022-11-20T01:40:42;9.63;;;8.60;;
18576;SDS011;9418;52.694;13.294;2022-11-20T01:43:10;10.40;;;8.73;;
18576;SDS011;9418;52.694;13.294;2022-11-20T01:46:13;13.33;;;8.70;;
18576;SDS011;9418;52.694;13.294;2022-11-20T01:48:43;10.50;;;8.93;;
18576;SDS011;9418;52.694;13.294;2022-11-20T01:51:21;10.60;;;9.50;;
18576;SDS011;9418;52.694;13.294;2022-11-20T01:53:52;12.03;;;9.50;;
18576;SDS011;9418;52.694;13.294;2022-11-20T01:56:20;9.87;;;8.30;;
18576;SDS011;9418;52.694;13.294;2022-11-20T01:58:48;9.83;;;8.53;;
18576;SDS011;9418;52.694;13.294;2022-11-20T02:01:19;10.83;;;9.43;;
18576;SDS011;9418;52.694;13.294;2022-11-20T02:03:46;10.70;;;8.60;;
18576;SDS011;9418;52.694;13.294;2022-11-20T02:06:16;9.67;;;8.63;;
18576;SDS011;9418;52.694;13.294;2022-11-20T02:08:49;11.03;;;8.90;;
18576;SDS011;9418;52.694;13.294;2022-11-20T02:11:17;9.73;;;8.73;;
18576;SDS011;9418;52.694;13.294;2022-11-20T02:13:43;10.33;;;9.20;;
18576;SDS011;9418;52.694;13.294;2022-11-20T02:16:11;9.60;;;8.70;;
18576;SDS011;9418;52.694;13.294;2022-11-20T02:18:42;10.70;;;8.30;;
18576;SDS011;9418;52.694;13.294;2022-11-20T02:21:13;10.27;;;9.10;;
18576;SDS011;9418;52.694;13.294;2022-11-20T02:24:01;10.13;;;8.50;;
18576;SDS011;9418;52.694;13.294;2022-11-20T02:26:38;9.93;;;8.93;;
18576;SDS011;9418;52.694;13.294;2022-11-20T02:29:08;9.60;;;8.60;;
18576;SDS011;9418;52.694;13.294;2022-11-20T02:31:36;10.53;;;8.93;;
18576;SDS011;9418;52.694;13.294;2022-11-20T02:34:04;9.80;;;8.80;;
18576;SDS011;9418;52.694;13.294;2022-11-20T02:36:30;10.80;;;9.40;;
18576;SDS011;9418;52.694;13.294;2022-11-20T02:38:59;12.13;;;7.77;;
18576;SDS011;9418;52.694;13.294;2022-11-20T02:41:31;12.57;;;9.30;;
18576;SDS011;9418;52.694;13.294;2022-11-20T02:43:59;10.00;;;9.00;;
18576;SDS011;9418;52.694;13.294;2022-11-20T02:46:25;11.33;;;9.23;;
18576;SDS011;9418;52.694;13.294;2022-11-20T02:48:52;10.80;;;9.47;;
18576;SDS011;9418;52.694;13.294;2022-11-20T02:51:18;11.00;;;8.63;;
18576;SDS011;9418;52.694;13.294;2022-11-20T02:53:45;11.60;;;10.40;;
18576;SDS011;9418;52.694;13.294;2022-11-20T02:56:11;10.10;;;9.10;;
18576;SDS011;9418;52.694;13.294;2022-11-20T02:58:39;9.70;;;8.80;;
18576;SDS011;9418;52.694;13.294;2022-11-20T03:01:06;11.70;;;10.10;;
18576;SDS011;9418;52.694;13.294;2022-11-20T03:03:33;10.20;;;8.90;;
18576;SDS011;9418;52.694;13.294;2022-11-20T03:05:59;12.20;;;9.80;;
18576;SDS011;9418;52.694;13.294;2022-11-20T03:08:26;10.30;;;8.93;;
18576;SDS011;9418;52.694;13.294;2022-11-20T03:10:53;11.60;;;10.00;;
18576;SDS011;9418;52.694;13.294;2022-11-20T03:13:19;12.10;;;9.73;;
18576;SDS011;9418;52.694;13.294;2022-11-20T03:15:47;14.23;;;10.03;;
18576;SDS011;9418;52.694;13.294;2022-11-20T03:18:14;11.73;;;10.20;;
18576;SDS011;9418;52.694;13.294;2022-11-20T03:20:40;16.80;;;9.60;;
18576;SDS011;9418;52.694;13.294;2022-11-20T03:23:07;14.33;;;10.57;;
18576;SDS011;9418;52.694;13.294;2022-11-20T03:25:33;15.03;;;10.00;;
18576;SDS011;9418;52.694;13.294;2022-11-20T03:28:00;12.23;;;10.13;;
18576;SDS011;9418;52.694;13.294;2022-11-20T03:30:27;12.57;;;11.27;;
18576;SDS011;9418;52.694;13.294;2022-11-20T03:32:54;12.53;;;11.23;;
18576;SDS011;9418;52.694;13.294;2022-11-20T03:35:21;11.90;;;10.67;;
18576;SDS011;9418;52.694;13.294;2022-11-20T03:37:48;11.83;;;10.10;;
18576;SDS011;9418;52.694;13.294;2022-11-20T03:40:14;11.93;;;10.67;;
18576;SDS011;9418;52.694;13.294;2022-11-20T03:42:41;12.63;;;9.93;;
18576;SDS011;9418;52.694;13.294;2022-11-20T03:45:13;10.60;;;9.40;;
18576;SDS011;9418;52.694;13.294;2022-11-20T03:47:41;15.50;;;10.53;;
18576;SDS011;9418;52.694;13.294;2022-11-20T03:50:09;12.90;;;10.90;;
18576;SDS011;9418;52.694;13.294;2022-11-20T03:52:38;11.53;;;10.33;;
18576;SDS011;9418;52.694;13.294;2022-11-20T03:55:05;11.90;;;10.33;;
18576;SDS011;9418;52.694;13.294;2022-11-20T03:57:32;12.70;;;11.10;;
18576;SDS011;9418;52.694;13.294;2022-11-20T03:59:59;14.83;;;11.33;;
18576;SDS011;9418;52.694;13.294;2022-11-20T04:02:25;15.03;;;10.20;;
18576;SDS011;9418;52.694;13.294;2022-11-20T04:04:52;11.70;;;10.33;;
18576;SDS011;9418;52.694;13.294;2022-11-20T04:07:20;14.63;;;10.43;;
18576;SDS011;9418;52.694;13.294;2022-11-20T04:09:46;11.73;;;10.53;;
18576;SDS011;9418;52.694;13.294;2022-11-20T04:12:13;13.93;;;10.67;;
18576;SDS011;9418;52.694;13.294;2022-11-20T04:14:39;13.43;;;12.03;;
18576;SDS011;9418;52.694;13.294;2022-11-20T04:17:06;16.53;;;10.90;;
18576;SDS011;9418;52.694;13.294;2022-11-20T04:19:33;16.53;;;11.63;;
18576;SDS011;9418;52.694;13.294;2022-11-20T04:21:59;13.07;;;10.43;;
18576;SDS011;9418;52.694;13.294;2022-11-20T04:24:27;16.47;;;12.03;;
18576;SDS011;9418;52.694;13.294;2022-11-20T04:26:54;13.13;;;11.50;;
18576;SDS011;9418;52.694;13.294;2022-11-20T04:29:20;13.87;;;10.87;;
18576;SDS011;9418;52.694;13.294;2022-11-20T04:31:47;13.50;;;11.90;;
18576;SDS011;9418;52.694;13.294;2022-11-20T04:34:13;17.30;;;12.93;;
18576;SDS011;9418;52.694;13.294;2022-11-20T04:36:40;14.83;;;11.80;;
18576;SDS011;9418;52.694;13.294;2022-11-20T04:39:11;14.93;;;12.20;;
18576;SDS011;9418;52.694;13.294;2022-11-20T04:41:40;12.93;;;11.47;;
18576;SDS011;9418;52.694;13.294;2022-11-20T04:44:06;15.20;;;11.77;;
18576;SDS011;9418;52.694;13.294;2022-11-20T04:46:34;14.30;;;11.10;;
18576;SDS011;9418;52.694;13.294;2022-11-20T04:49:01;12.80;;;11.23;;
18576;SDS011;9418;52.694;13.294;2022-11-20T04:51:28;17.33;;;12.00;;
18576;SDS011;9418;52.694;13.294;2022-11-20T04:53:55;14.70;;;12.07;;
18576;SDS011;9418;52.694;13.294;2022-11-20T04:56:22;13.57;;;11.03;;
18576;SDS011;9418;52.694;13.294;2022-11-20T04:58:49;12.97;;;11.57;;
18576;SDS011;9418;52.694;13.294;2022-11-20T05:01:17;14.17;;;11.37;;
18576;SDS011;9418;52.694;13.294;2022-11-20T05:03:45;12.47;;;11.17;;
18576;SDS011;9418;52.694;13.294;2022-11-20T05:06:13;13.90;;;11.70;;
18576;SDS011;9418;52.694;13.294;2022-11-20T05:08:42;16.87;;;11.77;;
18576;SDS011;9418;52.694;13.294;2022-11-20T05:11:09;13.67;;;12.13;;
18576;SDS011;9418;52.694;13.294;2022-11-20T05:13:36;16.27;;;11.87;;
18576;SDS011;9418;52.694;13.294;2022-11-20T05:16:06;15.17;;;12.20;;
18576;SDS011;9418;52.694;13.294;2022-11-20T05:18:34;17.53;;;13.43;;
18576;SDS011;9418;52.694;13.294;2022-11-20T05:21:01;15.43;;;12.73;;
18576;SDS011;9418;52.694;13.294;2022-11-20T05:23:29;16.07;;;12.50;;
18576;SDS011;9418;52.694;13.294;2022-11-20T05:25:57;15.47;;;11.83;;
18576;SDS011;9418;52.694;13.294;2022-11-20T05:28:24;12.50;;;11.20;;
18576;SDS011;9418;52.694;13.294;2022-11-20T05:30:51;14.30;;;12.10;;
18576;SDS011;9418;52.694;13.294;2022-11-20T05:33:19;15.00;;;12.40;;
18576;SDS011;9418;52.694;13.294;2022-11-20T05:35:46;13.37;;;11.97;;
18576;SDS011;9418;52.694;13.294;2022-11-20T05:38:14;13.83;;;11.57;;
18576;SDS011;9418;52.694;13.294;2022-11-20T05:40:41;14.13;;;11.47;;
18576;SDS011;9418;52.694;13.294;2022-11-20T05:43:07;16.23;;;12.57;;
18576;SDS011;9418;52.694;13.294;2022-11-20T05:45:34;15.00;;;11.67;;
18576;SDS011;9418;52.694;13.294;2022-11-20T05:48:01;16.20;;;13.77;;
18576;SDS011;9418;52.694;13.294;2022-11-20T05:50:29;17.73;;;12.20;;
18576;SDS011;9418;52.694;13.294;2022-11-20T05:52:57;16.70;;;13.03;;
18576;SDS011;9418;52.694;13.294;2022-11-20T05:55:24;16.10;;;12.03;;
18576;SDS011;9418;52.694;13.294;2022-11-20T05:57:51;15.23;;;12.27;;
18576;SDS011;9418;52.694;13.294;2022-11-20T06:00:19;17.70;;;13.17;;
18576;SDS011;9418;52.694;13.294;2022-11-20T06:02:45;15.13;;;12.40;;
18576;SDS011;9418;52.694;13.294;2022-11-20T06:05:12;14.27;;;11.93;;
18576;SDS011;9418;52.694;13.294;2022-11-20T06:07:40;13.30;;;11.70;;
18576;SDS011;9418;52.694;13.294;2022-11-20T06:10:07;16.40;;;12.27;;
18576;SDS011;9418;52.694;13.294;2022-11-20T06:12:34;14.00;;;12.03;;
18576;SDS011;9418;52.694;13.294;2022-11-20T06:15:01;16.63;;;12.50;;
18576;SDS011;9418;52.694;13.294;2022-11-20T06:17:27;17.60;;;12.87;;
18576;SDS011;9418;52.694;13.294;2022-11-20T06:19:54;14.77;;;12.13;;
18576;SDS011;9418;52.694;13.294;2022-11-20T06:22:20;14.80;;;12.23;;
18576;SDS011;9418;52.694;13.294;2022-11-20T06:24:48;20.27;;;12.87;;
18576;SDS011;9418;52.694;13.294;2022-11-20T06:27:15;15.80;;;12.07;;
18576;SDS011;9418;52.694;13.294;2022-11-20T06:29:42;15.30;;;11.10;;
18576;SDS011;9418;52.694;13.294;2022-11-20T06:32:08;16.63;;;12.70;;
18576;SDS011;9418;52.694;13.294;2022-11-20T06:34:35;16.53;;;12.60;;
18576;SDS011;9418;52.694;13.294;2022-11-20T06:37:02;14.40;;;12.03;;
18576;SDS011;9418;52.694;13.294;2022-11-20T06:39:28;14.70;;;11.30;;
18576;SDS011;9418;52.694;13.294;2022-11-20T06:41:56;13.47;;;11.83;;
18576;SDS011;9418;52.694;13.294;2022-11-20T06:44:23;15.83;;;12.70;;
18576;SDS011;9418;52.694;13.294;2022-11-20T06:46:49;25.50;;;13.77;;
18576;SDS011;9418;52.694;13.294;2022-11-20T06:49:16;13.90;;;12.43;;
18576;SDS011;9418;52.694;13.294;2022-11-20T06:51:42;15.10;;;12.57;;
18576;SDS011;9418;52.694;13.294;2022-11-20T06:54:09;13.93;;;11.60;;
18576;SDS011;9418;52.694;13.294;2022-11-20T06:56:35;12.43;;;10.60;;
18576;SDS011;9418;52.694;13.294;2022-11-20T06:59:04;13.17;;;11.77;;
18576;SDS011;9418;52.694;13.294;2022-11-20T07:01:31;13.40;;;11.70;;
18576;SDS011;9418;52.694;13.294;2022-11-20T07:03:58;14.90;;;12.73;;
18576;SDS011;9418;52.694;13.294;2022-11-20T07:06:25;17.33;;;12.30;;
18576;SDS011;9418;52.694;13.294;2022-11-20T07:08:51;15.30;;;12.87;;
18576;SDS011;9418;52.694;13.294;2022-11-20T07:11:19;15.23;;;12.40;;
18576;SDS011;9418;52.694;13.294;2022-11-20T07:13:46;13.23;;;11.77;;
18576;SDS011;9418;52.694;13.294;2022-11-20T07:16:14;15.50;;;13.00;;
18576;SDS011;9418;52.694;13.294;2022-11-20T07:18:40;13.03;;;11.10;;
18576;SDS011;9418;52.694;13.294;2022-11-20T07:21:08;14.20;;;12.60;;
18576;SDS011;9418;52.694;13.294;2022-11-20T07:23:36;16.10;;;12.80;;
18576;SDS011;9418;52.694;13.294;2022-11-20T07:26:03;16.37;;;13.23;;
18576;SDS011;9418;52.694;13.294;2022-11-20T07:28:30;14.37;;;12.97;;
18576;SDS011;9418;52.694;13.294;2022-11-20T07:30:57;16.83;;;13.07;;
18576;SDS011;9418;52.694;13.294;2022-11-20T07:33:24;16.60;;;13.40;;
18576;SDS011;9418;52.694;13.294;2022-11-20T07:35:51;18.27;;;13.33;;
18576;SDS011;9418;52.694;13.294;2022-11-20T07:38:18;17.93;;;14.53;;
18576;SDS011;9418;52.694;13.294;2022-11-20T07:40:44;18.30;;;14.30;;
18576;SDS011;9418;52.694;13.294;2022-11-20T07:43:11;13.73;;;12.23;;
18576;SDS011;9418;52.694;13.294;2022-11-20T07:45:37;15.40;;;12.50;;
18576;SDS011;9418;52.694;13.294;2022-11-20T07:48:04;18.07;;;14.00;;
18576;SDS011;9418;52.694;13.294;2022-11-20T07:50:32;17.50;;;12.90;;
18576;SDS011;9418;52.694;13.294;2022-11-20T07:53:03;18.10;;;14.40;;
18576;SDS011;9418;52.694;13.294;2022-11-20T07:55:30;15.10;;;13.50;;
18576;SDS011;9418;52.694;13.294;2022-11-20T07:57:57;18.23;;;12.90;;
18576;SDS011;9418;52.694;13.294;2022-11-20T08:00:24;17.03;;;13.50;;
18576;SDS011;9418;52.694;13.294;2022-11-20T08:02:51;17.17;;;13.17;;
18576;SDS011;9418;52.694;13.294;2022-11-20T08:05:18;21.73;;;15.23;;
18576;SDS011;9418;52.694;13.294;2022-11-20T08:07:46;17.10;;;14.30;;
18576;SDS011;9418;52.694;13.294;2022-11-20T08:10:13;18.97;;;14.63;;
18576;SDS011;9418;52.694;13.294;2022-11-20T08:12:44;19.50;;;13.83;;
18576;SDS011;9418;52.694;13.294;2022-11-20T08:15:29;18.60;;;13.87;;
18576;SDS011;9418;52.694;13.294;2022-11-20T08:18:00;19.77;;;13.97;;
18576;SDS011;9418;52.694;13.294;2022-11-20T08:20:27;22.43;;;14.27;;
18576;SDS011;9418;52.694;13.294;2022-11-20T08:22:58;15.60;;;12.80;;
18576;SDS011;9418;52.694;13.294;2022-11-20T08:25:26;16.63;;;13.30;;
18576;SDS011;9418;52.694;13.294;2022-11-20T08:27:53;16.23;;;13.40;;
18576;SDS011;9418;52.694;13.294;2022-11-20T08:30:19;16.90;;;14.00;;
18576;SDS011;9418;52.694;13.294;2022-11-20T08:32:46;19.17;;;14.03;;
18576;SDS011;9418;52.694;13.294;2022-11-20T08:35:13;19.67;;;14.23;;
18576;SDS011;9418;52.694;13.294;2022-11-20T08:37:39;18.50;;;14.90;;
18576;SDS011;9418;52.694;13.294;2022-11-20T08:40:09;17.90;;;14.27;;
18576;SDS011;9418;52.694;13.294;2022-11-20T08:42:37;15.60;;;13.43;;
18576;SDS011;9418;52.694;13.294;2022-11-20T08:45:11;18.70;;;14.73;;
18576;SDS011;9418;52.694;13.294;2022-11-20T08:47:37;16.40;;;13.37;;
18576;SDS011;9418;52.694;13.294;2022-11-20T08:50:04;16.90;;;13.97;;
18576;SDS011;9418;52.694;13.294;2022-11-20T08:52:31;18.93;;;15.10;;
18576;SDS011;9418;52.694;13.294;2022-11-20T08:54:58;22.53;;;16.70;;
18576;SDS011;9418;52.694;13.294;2022-11-20T08:57:26;21.43;;;15.80;;
18576;SDS011;9418;52.694;13.294;2022-11-20T08:59:53;19.27;;;14.30;;
18576;SDS011;9418;52.694;13.294;2022-11-20T09:02:20;22.03;;;15.87;;
18576;SDS011;9418;52.694;13.294;2022-11-20T09:04:47;17.83;;;14.60;;
18576;SDS011;9418;52.694;13.294;2022-11-20T09:07:14;17.20;;;14.17;;
18576;SDS011;9418;52.694;13.294;2022-11-20T09:09:41;17.90;;;14.27;;
18576;SDS011;9418;52.694;13.294;2022-11-20T09:12:07;18.40;;;14.67;;
18576;SDS011;9418;52.694;13.294;2022-11-20T09:14:35;21.60;;;17.70;;
18576;SDS011;9418;52.694;13.294;2022-11-20T09:17:02;16.27;;;13.10;;
18576;SDS011;9418;52.694;13.294;2022-11-20T09:19:29;19.90;;;15.13;;
18576;SDS011;9418;52.694;13.294;2022-11-20T09:21:55;18.70;;;14.83;;
18576;SDS011;9418;52.694;13.294;2022-11-20T09:24:22;19.10;;;14.20;;
18576;SDS011;9418;52.694;13.294;2022-11-20T09:26:48;18.67;;;14.83;;
18576;SDS011;9418;52.694;13.294;2022-11-20T09:29:15;17.23;;;14.63;;
18576;SDS011;9418;52.694;13.294;2022-11-20T09:31:43;17.77;;;13.50;;
18576;SDS011;9418;52.694;13.294;2022-11-20T09:34:09;18.73;;;14.17;;
18576;SDS011;9418;52.694;13.294;2022-11-20T09:36:36;18.47;;;12.80;;
18576;SDS011;9418;52.694;13.294;2022-11-20T09:39:03;21.57;;;14.70;;
18576;SDS011;9418;52.694;13.294;2022-11-20T09:41:40;17.13;;;14.03;;
18576;SDS011;9418;52.694;13.294;2022-11-20T09:44:19;18.30;;;13.63;;
18576;SDS011;9418;52.694;13.294;2022-11-20T09:46:58;20.40;;;15.97;;
18576;SDS011;9418;52.694;13.294;2022-11-20T09:49:32;21.20;;;14.83;;
18576;SDS011;9418;52.694;13.294;2022-11-20T09:52:07;20.23;;;14.20;;
18576;SDS011;9418;52.694;13.294;2022-11-20T09:54:40;23.73;;;13.40;;
18576;SDS011;9418;52.694;13.294;2022-11-20T09:57:08;19.77;;;14.83;;
18576;SDS011;9418;52.694;13.294;2022-11-20T09:59:38;16.50;;;14.00;;
18576;SDS011;9418;52.694;13.294;2022-11-20T10:02:12;15.33;;;12.93;;
18576;SDS011;9418;52.694;13.294;2022-11-20T10:04:43;19.47;;;12.97;;
18576;SDS011;9418;52.694;13.294;2022-11-20T10:07:15;18.53;;;13.27;;
18576;SDS011;9418;52.694;13.294;2022-11-20T10:09:49;18.00;;;15.17;;
18576;SDS011;9418;52.694;13.294;2022-11-20T10:12:19;17.40;;;14.53;;
18576;SDS011;9418;52.694;13.294;2022-11-20T10:14:56;17.10;;;13.40;;
18576;SDS011;9418;52.694;13.294;2022-11-20T10:17:55;23.13;;;15.63;;
18576;SDS011;9418;52.694;13.294;2022-11-20T10:20:40;17.77;;;13.87;;
18576;SDS011;9418;52.694;13.294;2022-11-20T10:26:14;16.27;;;13.10;;
18576;SDS011;9418;52.694;13.294;2022-11-20T10:28:48;16.33;;;12.40;;
18576;SDS011;9418;52.694;13.294;2022-11-20T10:31:28;18.30;;;13.70;;
18576;SDS011;9418;52.694;13.294;2022-11-20T10:33:59;15.00;;;12.80;;
18576;SDS011;9418;52.694;13.294;2022-11-20T10:36:33;16.57;;;12.60;;
18576;SDS011;9418;52.694;13.294;2022-11-20T10:39:03;16.53;;;12.23;;
18576;SDS011;9418;52.694;13.294;2022-11-20T10:41:38;17.90;;;13.80;;
18576;SDS011;9418;52.694;13.294;2022-11-20T10:44:09;17.40;;;13.13;;
18576;SDS011;9418;52.694;13.294;2022-11-20T10:46:40;18.57;;;14.63;;
18576;SDS011;9418;52.694;13.294;2022-11-20T10:49:12;19.20;;;13.10;;
18576;SDS011;9418;52.694;13.294;2022-11-20T10:51:44;20.90;;;13.30;;
18576;SDS011;9418;52.694;13.294;2022-11-20T10:54:19;13.90;;;12.23;;
18576;SDS011;9418;52.694;13.294;2022-11-20T10:56:53;15.87;;;13.03;;
18576;SDS011;9418;52.694;13.294;2022-11-20T10:59:37;19.73;;;13.90;;
18576;SDS011;9418;52.694;13.294;2022-11-20T11:02:14;19.10;;;13.90;;
18576;SDS011;9418;52.694;13.294;2022-11-20T11:04:44;17.33;;;12.50;;
18576;SDS011;9418;52.694;13.294;2022-11-20T11:07:15;19.37;;;13.20;;
18576;SDS011;9418;52.694;13.294;2022-11-20T11:09:44;15.63;;;12.10;;
18576;SDS011;9418;52.694;13.294;2022-11-20T11:12:14;14.43;;;12.13;;
18576;SDS011;9418;52.694;13.294;2022-11-20T11:14:42;21.20;;;11.17;;
18576;SDS011;9418;52.694;13.294;2022-11-20T11:17:18;16.57;;;12.37;;
18576;SDS011;9418;52.694;13.294;2022-11-20T11:19:57;13.40;;;11.57;;
18576;SDS011;9418;52.694;13.294;2022-11-20T11:22:30;14.20;;;12.50;;
18576;SDS011;9418;52.694;13.294;2022-11-20T11:24:58;14.13;;;12.23;;
18576;SDS011;9418;52.694;13.294;2022-11-20T11:27:25;17.00;;;12.23;;
18576;SDS011;9418;52.694;13.294;2022-11-20T11:30:01;14.47;;;12.07;;
18576;SDS011;9418;52.694;13.294;2022-11-20T11:32:37;12.77;;;11.10;;
18576;SDS011;9418;52.694;13.294;2022-11-20T11:35:06;16.70;;;11.30;;
18576;SDS011;9418;52.694;13.294;2022-11-20T11:37:46;16.13;;;12.40;;
18576;SDS011;9418;52.694;13.294;2022-11-20T11:40:14;15.27;;;11.50;;
18576;SDS011;9418;52.694;13.294;2022-11-20T11:42:43;16.90;;;12.17;;
18576;SDS011;9418;52.694;13.294;2022-11-20T11:45:13;24.80;;;12.10;;
18576;SDS011;9418;52.694;13.294;2022-11-20T11:47:43;16.90;;;12.80;;
18576;SDS011;9418;52.694;13.294;2022-11-20T11:50:17;18.20;;;12.63;;
18576;SDS011;9418;52.694;13.294;2022-11-20T11:52:47;15.30;;;12.80;;
18576;SDS011;9418;52.694;13.294;2022-11-20T11:55:25;14.13;;;11.07;;
18576;SDS011;9418;52.694;13.294;2022-11-20T11:57:58;13.73;;;11.53;;
18576;SDS011;9418;52.694;13.294;2022-11-20T12:00:35;15.37;;;12.23;;
18576;SDS011;9418;52.694;13.294;2022-11-20T12:03:08;14.10;;;11.40;;
18576;SDS011;9418;52.694;13.294;2022-11-20T12:05:40;14.10;;;11.97;;
18576;SDS011;9418;52.694;13.294;2022-11-20T12:08:12;17.67;;;12.20;;
18576;SDS011;9418;52.694;13.294;2022-11-20T12:10:44;16.20;;;11.10;;
18576;SDS011;9418;52.694;13.294;2022-11-20T12:13:17;13.87;;;11.77;;
18576;SDS011;9418;52.694;13.294;2022-11-20T12:15:51;13.63;;;11.50;;
18576;SDS011;9418;52.694;13.294;2022-11-20T12:18:20;11.80;;;10.50;;
18576;SDS011;9418;52.694;13.294;2022-11-20T12:20:52;14.80;;;11.53;;
18576;SDS011;9418;52.694;13.294;2022-11-20T12:23:28;12.20;;;10.43;;
18576;SDS011;9418;52.694;13.294;2022-11-20T12:26:03;14.93;;;11.70;;
18576;SDS011;9418;52.694;13.294;2022-11-20T12:28:39;14.70;;;10.43;;
18576;SDS011;9418;52.694;13.294;2022-11-20T12:31:22;13.40;;;11.23;;
18576;SDS011;9418;52.694;13.294;2022-11-20T12:34:11;13.07;;;10.07;;
18576;SDS011;9418;52.694;13.294;2022-11-20T12:36:51;12.40;;;10.13;;
18576;SDS011;9418;52.694;13.294;2022-11-20T12:39:33;12.07;;;10.70;;
18576;SDS011;9418;52.694;13.294;2022-11-20T12:42:05;12.93;;;11.43;;
18576;SDS011;9418;52.694;13.294;2022-11-20T12:45:09;12.80;;;9.50;;
18576;SDS011;9418;52.694;13.294;2022-11-20T12:48:01;11.63;;;10.17;;
18576;SDS011;9418;52.694;13.294;2022-11-20T12:50:40;15.40;;;10.57;;
18576;SDS011;9418;52.694;13.294;2022-11-20T12:53:21;11.70;;;10.57;;
18576;SDS011;9418;52.694;13.294;2022-11-20T12:55:56;13.10;;;11.20;;
18576;SDS011;9418;52.694;13.294;2022-11-20T12:58:31;14.33;;;11.03;;
18576;SDS011;9418;52.694;13.294;2022-11-20T13:01:07;13.03;;;10.10;;
18576;SDS011;9418;52.694;13.294;2022-11-20T13:04:02;12.23;;;10.30;;
18576;SDS011;9418;52.694;13.294;2022-11-20T13:06:38;11.47;;;10.00;;
18576;SDS011;9418;52.694;13.294;2022-11-20T13:09:07;15.30;;;11.13;;
18576;SDS011;9418;52.694;13.294;2022-11-20T13:11:39;12.17;;;10.17;;
18576;SDS011;9418;52.694;13.294;2022-11-20T13:14:16;13.07;;;9.80;;
18576;SDS011;9418;52.694;13.294;2022-11-20T13:16:53;10.90;;;9.80;;
18576;SDS011;9418;52.694;13.294;2022-11-20T13:19:24;12.80;;;10.00;;
18576;SDS011;9418;52.694;13.294;2022-11-20T13:21:51;10.93;;;9.83;;
18576;SDS011;9418;52.694;13.294;2022-11-20T13:24:23;15.70;;;12.40;;
18576;SDS011;9418;52.694;13.294;2022-11-20T13:27:16;11.90;;;10.70;;
18576;SDS011;9418;52.694;13.294;2022-11-20T13:29:46;19.20;;;14.40;;
18576;SDS011;9418;52.694;13.294;2022-11-20T13:32:25;13.57;;;10.90;;
18576;SDS011;9418;52.694;13.294;2022-11-20T13:34:57;11.87;;;10.67;;
18576;SDS011;9418;52.694;13.294;2022-11-20T13:37:26;15.57;;;10.80;;
18576;SDS011;9418;52.694;13.294;2022-11-20T13:40:06;13.00;;;10.43;;
18576;SDS011;9418;52.694;13.294;2022-11-20T13:42:38;15.73;;;11.10;;
18576;SDS011;9418;52.694;13.294;2022-11-20T13:45:10;13.30;;;10.50;;
18576;SDS011;9418;52.694;13.294;2022-11-20T13:47:47;11.47;;;10.20;;
18576;SDS011;9418;52.694;13.294;2022-11-20T13:50:14;17.10;;;11.40;;
18576;SDS011;9418;52.694;13.294;2022-11-20T13:52:42;12.87;;;11.37;;
18576;SDS011;9418;52.694;13.294;2022-11-20T13:55:18;18.13;;;11.40;;
18576;SDS011;9418;52.694;13.294;2022-11-20T13:57:53;13.20;;;11.37;;
18576;SDS011;9418;52.694;13.294;2022-11-20T14:00:43;14.63;;;10.17;;
18576;SDS011;9418;52.694;13.294;2022-11-20T14:03:14;14.17;;;11.30;;
18576;SDS011;9418;52.694;13.294;2022-11-20T14:05:46;13.53;;;10.63;;
18576;SDS011;9418;52.694;13.294;2022-11-20T14:08:20;13.60;;;11.63;;
18576;SDS011;9418;52.694;13.294;2022-11-20T14:11:01;13.30;;;10.67;;
18576;SDS011;9418;52.694;13.294;2022-11-20T14:13:29;16.53;;;11.27;;
18576;SDS011;9418;52.694;13.294;2022-11-20T14:15:56;13.40;;;10.50;;
18576;SDS011;9418;52.694;13.294;2022-11-20T14:18:25;19.90;;;11.73;;
18576;SDS011;9418;52.694;13.294;2022-11-20T14:20:52;14.47;;;11.73;;
18576;SDS011;9418;52.694;13.294;2022-11-20T14:23:25;16.23;;;12.37;;
18576;SDS011;9418;52.694;13.294;2022-11-20T14:25:54;12.67;;;10.90;;
18576;SDS011;9418;52.694;13.294;2022-11-20T14:28:24;13.67;;;11.47;;
18576;SDS011;9418;52.694;13.294;2022-11-20T14:30:52;12.27;;;9.97;;
18576;SDS011;9418;52.694;13.294;2022-11-20T14:33:20;19.27;;;11.40;;
18576;SDS011;9418;52.694;13.294;2022-11-20T14:35:50;12.43;;;9.87;;
18576;SDS011;9418;52.694;13.294;2022-11-20T14:38:19;13.93;;;10.80;;
18576;SDS011;9418;52.694;13.294;2022-11-20T14:40:48;14.87;;;12.00;;
18576;SDS011;9418;52.694;13.294;2022-11-20T14:43:20;15.27;;;10.80;;
18576;SDS011;9418;52.694;13.294;2022-11-20T14:45:51;14.30;;;11.93;;